createdAt,value
2018-05-08T00:00:08.134Z,71.40
2018-05-08T00:02:35.301Z,68.70
2018-05-08T00:05:01.627Z,68.70
2018-05-08T00:07:27.944Z,68.80
2018-05-08T00:09:54.289Z,71.20
2018-05-08T00:12:20.722Z,72.10
2018-05-08T00:14:47.054Z,69.70
2018-05-08T00:17:13.453Z,73.50
2018-05-08T00:19:40.559Z,75.00
2018-05-08T00:22:06.960Z,75.00
2018-05-08T00:24:33.866Z,73.40
2018-05-08T00:27:00.250Z,73.10
2018-05-08T00:29:26.637Z,73.70
2018-05-08T00:31:53.128Z,70.20
2018-05-08T00:34:19.666Z,68.80
2018-05-08T00:36:46.007Z,71.70
2018-05-08T00:39:12.402Z,72.40
2018-05-08T00:41:38.697Z,69.20
2018-05-08T00:44:05.096Z,73.20
2018-05-08T00:46:32.163Z,69.70
2018-05-08T00:48:58.512Z,69.70
2018-05-08T00:51:24.890Z,70.90
2018-05-08T00:53:51.272Z,73.30
2018-05-08T00:56:17.638Z,74.30
2018-05-08T00:58:45.769Z,69.90
2018-05-08T01:01:12.864Z,75.40
2018-05-08T01:03:39.223Z,75.40
2018-05-08T01:06:05.592Z,74.70
2018-05-08T01:08:31.982Z,75.10
2018-05-08T01:10:58.293Z,74.80
2018-05-08T01:13:24.597Z,73.30
2018-05-08T01:15:51.709Z,73.50
2018-05-08T01:18:18.960Z,73.30
2018-05-08T01:20:45.324Z,74.00
2018-05-08T01:23:11.720Z,72.40
2018-05-08T01:25:38.214Z,74.50
2018-05-08T01:28:04.605Z,74.70
2018-05-08T01:30:31.663Z,74.90
2018-05-08T01:32:58.741Z,76.40
2018-05-08T01:35:25.097Z,76.40
2018-05-08T01:37:51.441Z,74.40
2018-05-08T01:40:17.825Z,72.00
2018-05-08T01:42:44.142Z,72.00
2018-05-08T01:45:10.533Z,71.70
2018-05-08T01:47:36.848Z,72.00
2018-05-08T01:50:03.244Z,72.40
2018-05-08T01:52:29.697Z,73.00
2018-05-08T01:54:56.043Z,79.20
2018-05-08T01:57:22.394Z,79.90
2018-05-08T01:59:48.769Z,77.90
2018-05-08T02:02:15.085Z,79.70
2018-05-08T02:04:41.416Z,79.10
2018-05-08T02:07:07.885Z,73.20
2018-05-08T02:09:34.310Z,73.20
2018-05-08T02:12:00.638Z,72.70
2018-05-08T02:14:26.985Z,73.30
2018-05-08T02:16:53.343Z,73.90
2018-05-08T02:19:19.760Z,75.10
2018-05-08T02:21:46.848Z,79.50
2018-05-08T02:24:13.157Z,79.50
2018-05-08T02:26:40.237Z,76.10
2018-05-08T02:29:06.573Z,75.40
2018-05-08T02:31:32.889Z,75.90
2018-05-08T02:33:59.965Z,78.10
2018-05-08T02:36:27.061Z,76.90
2018-05-08T02:38:53.419Z,76.10
2018-05-08T02:41:19.769Z,73.70
2018-05-08T02:43:46.126Z,74.80
2018-05-08T02:46:12.527Z,80.50
2018-05-08T02:48:38.938Z,78.10
2018-05-08T02:51:05.285Z,79.10
2018-05-08T02:53:31.670Z,73.50
2018-05-08T02:55:58.007Z,79.60
2018-05-08T02:58:24.344Z,81.00
2018-05-08T03:00:50.679Z,80.40
2018-05-08T03:03:17.756Z,80.30
2018-05-08T03:05:44.054Z,80.20
2018-05-08T03:08:10.440Z,74.50
2018-05-08T03:10:36.811Z,73.50
2018-05-08T03:13:03.165Z,80.30
2018-05-08T03:15:29.461Z,74.10
2018-05-08T03:17:55.801Z,74.70
2018-05-08T03:20:22.117Z,74.50
2018-05-08T03:22:48.431Z,76.00
2018-05-08T03:25:14.792Z,77.30
2018-05-08T03:27:41.097Z,78.90
2018-05-08T03:30:07.435Z,81.60
2018-05-08T03:32:33.768Z,82.20
2018-05-08T03:35:00.169Z,82.50
2018-05-08T03:37:26.518Z,80.30
2018-05-08T03:39:52.865Z,78.80
2018-05-08T03:42:19.249Z,77.80
2018-05-08T03:44:46.374Z,79.50
2018-05-08T03:47:12.779Z,79.50
2018-05-08T03:49:39.099Z,78.80
2018-05-08T03:52:05.493Z,76.80
2018-05-08T03:54:31.858Z,77.60
2018-05-08T03:56:58.163Z,75.40
2018-05-08T03:59:24.533Z,74.50
2018-05-08T04:02:03.160Z,74.70
2018-05-08T04:04:41.803Z,79.70
2018-05-08T04:07:21.450Z,78.10
2018-05-08T04:09:47.951Z,74.30
2018-05-08T04:12:14.287Z,77.90
2018-05-08T04:14:41.415Z,73.30
2018-05-08T04:17:07.896Z,73.30
2018-05-08T04:19:34.181Z,78.30
2018-05-08T04:22:00.546Z,78.50
2018-05-08T04:24:26.886Z,76.30
2018-05-08T04:26:53.209Z,79.00
2018-05-08T04:29:19.583Z,72.60
2018-05-08T04:31:45.878Z,78.50
2018-05-08T04:34:12.187Z,72.10
2018-05-08T04:36:39.321Z,76.50
2018-05-08T04:39:05.961Z,76.40
2018-05-08T04:41:32.308Z,74.10
2018-05-08T04:43:58.703Z,71.20
2018-05-08T04:46:25.070Z,75.10
2018-05-08T04:48:51.464Z,72.20
2018-05-08T04:51:17.900Z,77.60
2018-05-08T04:53:44.337Z,71.70
2018-05-08T04:56:10.681Z,73.20
2018-05-08T04:58:37.092Z,74.10
2018-05-08T05:01:03.589Z,78.00
2018-05-08T05:03:30.715Z,75.00
2018-05-08T05:05:57.160Z,74.90
2018-05-08T05:08:23.787Z,74.40
2018-05-08T05:10:55.221Z,74.10
2018-05-08T05:13:21.665Z,71.40
2018-05-08T05:15:48.871Z,72.40
2018-05-08T05:21:11.522Z,74.30
2018-05-08T05:23:37.901Z,74.10
2018-05-08T05:26:04.357Z,75.80
2018-05-08T05:28:30.670Z,73.00
2018-05-08T05:30:57.033Z,71.80
2018-05-08T05:33:23.470Z,73.00
2018-05-08T05:35:49.928Z,72.20
2018-05-08T05:38:16.407Z,72.10
2018-05-08T05:40:42.750Z,72.00
2018-05-08T05:43:09.144Z,71.70
2018-05-08T05:45:36.546Z,71.80
2018-05-08T05:48:02.948Z,73.80
2018-05-08T05:50:29.939Z,71.40
2018-05-08T05:52:56.275Z,71.90
2018-05-08T05:55:23.359Z,70.00
2018-05-08T05:57:53.845Z,70.90
2018-05-08T06:00:20.143Z,69.80
2018-05-08T06:02:46.536Z,69.20
2018-05-08T06:05:13.637Z,67.40
2018-05-08T06:07:40.253Z,67.40
2018-05-08T06:10:06.689Z,66.50
2018-05-08T06:12:33.069Z,65.90
2018-05-08T06:14:59.540Z,65.10
2018-05-08T06:17:26.006Z,65.10
2018-05-08T06:19:52.442Z,65.20
2018-05-08T06:22:18.917Z,64.10
2018-05-08T06:24:46.053Z,61.60
2018-05-08T06:27:12.431Z,61.50
2018-05-08T06:29:38.916Z,58.50
2018-05-08T06:32:05.397Z,54.90
2018-05-08T06:34:32.527Z,49.20
2018-05-08T06:36:58.877Z,49.00
2018-05-08T06:39:25.261Z,47.90
2018-05-08T06:41:51.546Z,47.20
2018-05-08T06:44:18.043Z,44.80
2018-05-08T06:46:44.368Z,43.90
2018-05-08T06:49:11.382Z,44.10
2018-05-08T06:51:39.017Z,43.20
2018-05-08T06:54:05.523Z,42.40
2018-05-08T06:56:31.986Z,42.50
2018-05-08T06:58:58.366Z,41.80
2018-05-08T07:01:24.747Z,40.90
2018-05-08T07:03:51.129Z,41.20
2018-05-08T07:06:17.498Z,39.90
2018-05-08T07:08:44.023Z,40.50
2018-05-08T07:11:10.366Z,40.70
2018-05-08T07:13:36.800Z,40.80
2018-05-08T07:16:03.361Z,42.00
2018-05-08T07:18:29.579Z,41.10
2018-05-08T07:20:55.929Z,42.20
2018-05-08T07:23:22.291Z,42.50
2018-05-08T07:25:48.705Z,41.90
2018-05-08T07:28:15.067Z,42.40
2018-05-08T07:30:41.457Z,42.30
2018-05-08T07:33:07.821Z,42.80
2018-05-08T07:35:34.262Z,41.50
2018-05-08T07:38:00.788Z,41.70
2018-05-08T07:40:27.973Z,40.60
2018-05-08T07:42:54.305Z,40.60
2018-05-08T07:45:20.739Z,40.80
2018-05-08T07:47:47.081Z,40.30
2018-05-08T07:50:14.229Z,38.20
2018-05-08T07:52:40.533Z,38.20
2018-05-08T07:55:06.919Z,37.90
2018-05-08T07:57:33.270Z,37.10
2018-05-08T08:00:00.315Z,36.50
2018-05-08T08:02:26.704Z,36.10
2018-05-08T08:04:53.045Z,35.70
2018-05-08T08:07:19.322Z,36.60
2018-05-08T08:09:45.729Z,36.00
2018-05-08T08:12:12.150Z,36.70
2018-05-08T08:14:39.249Z,37.10
2018-05-08T08:17:06.396Z,35.40
2018-05-08T08:19:32.730Z,35.40
2018-05-08T08:21:59.811Z,35.10
2018-05-08T08:24:26.164Z,35.10
2018-05-08T08:26:52.535Z,34.80
2018-05-08T08:29:19.685Z,34.80
2018-05-08T08:31:46.099Z,35.00
2018-05-08T08:34:12.472Z,34.90
2018-05-08T08:36:38.871Z,34.40
2018-05-08T08:39:06.010Z,32.60
2018-05-08T08:41:32.338Z,32.60
2018-05-08T08:43:58.711Z,34.30
2018-05-08T08:46:25.104Z,33.40
2018-05-08T08:48:51.454Z,34.20
2018-05-08T08:51:17.833Z,32.60
2018-05-08T08:53:44.556Z,35.10
2018-05-08T08:56:10.950Z,33.00
2018-05-08T08:58:38.058Z,35.10
2018-05-08T09:01:04.429Z,33.80
2018-05-08T09:03:30.723Z,33.00
2018-05-08T09:05:57.084Z,33.60
2018-05-08T09:08:23.420Z,33.60
2018-05-08T09:10:49.823Z,33.50
2018-05-08T09:13:16.969Z,33.90
2018-05-08T09:15:45.294Z,33.90
2018-05-08T09:18:12.207Z,34.40
2018-05-08T09:20:39.597Z,34.20
2018-05-08T09:23:06.740Z,33.70
2018-05-08T09:25:33.221Z,33.60
2018-05-08T09:28:06.386Z,33.40
2018-05-08T09:30:33.501Z,34.80
2018-05-08T09:32:59.924Z,35.20
2018-05-08T09:35:26.351Z,35.40
2018-05-08T09:37:52.717Z,34.80
2018-05-08T09:40:19.788Z,34.70
2018-05-08T09:42:46.159Z,34.70
2018-05-08T09:45:13.185Z,33.40
2018-05-08T09:47:40.368Z,33.00
2018-05-08T09:50:06.693Z,33.00
2018-05-08T09:52:33.822Z,32.80
2018-05-08T09:55:00.090Z,32.70
2018-05-08T09:57:27.142Z,31.40
2018-05-08T09:59:54.255Z,32.50
2018-05-08T10:02:20.598Z,32.50
2018-05-08T10:04:47.015Z,32.00
2018-05-08T10:07:14.170Z,31.10
2018-05-08T10:09:41.402Z,31.60
2018-05-08T10:12:07.737Z,31.50
2018-05-08T10:14:35.146Z,31.30
2018-05-08T10:17:02.176Z,31.60
2018-05-08T10:19:28.639Z,31.60
2018-05-08T10:21:55.692Z,31.20
2018-05-08T10:24:22.793Z,30.50
2018-05-08T10:26:49.193Z,30.50
2018-05-08T10:29:16.299Z,30.50
2018-05-08T10:31:43.791Z,30.50
2018-05-08T10:34:10.122Z,30.00
2018-05-08T10:36:36.539Z,31.80
2018-05-08T10:39:02.947Z,32.20
2018-05-08T10:41:29.356Z,30.30
2018-05-08T10:43:55.704Z,30.80
2018-05-08T10:46:22.039Z,30.70
2018-05-08T10:48:48.437Z,30.40
2018-05-08T10:51:14.811Z,30.40
2018-05-08T10:53:41.128Z,29.70
2018-05-08T10:56:07.449Z,30.40
2018-05-08T10:58:33.744Z,30.00
2018-05-08T11:01:00.099Z,29.20
2018-05-08T11:03:26.448Z,29.50
2018-05-08T11:05:52.941Z,29.50
2018-05-08T11:08:19.305Z,30.70
2018-05-08T11:10:46.347Z,29.90
2018-05-08T11:13:12.707Z,29.90
2018-05-08T11:15:39.749Z,30.00
2018-05-08T11:18:06.323Z,30.00
2018-05-08T11:20:33.360Z,30.40
2018-05-08T11:22:59.696Z,30.20
2018-05-08T11:25:26.046Z,29.80
2018-05-08T11:27:52.399Z,30.30
2018-05-08T11:30:18.731Z,30.90
2018-05-08T11:32:45.186Z,29.80
2018-05-08T11:35:11.556Z,29.80
2018-05-08T11:37:40.053Z,28.90
2018-05-08T11:40:06.386Z,29.20
2018-05-08T11:42:33.489Z,29.50
2018-05-08T11:44:59.880Z,29.50
2018-05-08T11:47:26.959Z,29.80
2018-05-08T11:49:53.426Z,29.30
2018-05-08T11:52:19.779Z,29.10
2018-05-08T11:54:46.220Z,29.40
2018-05-08T11:57:13.332Z,29.50
2018-05-08T11:59:39.729Z,29.50
2018-05-08T12:02:06.256Z,29.20
2018-05-08T12:04:32.720Z,28.00
2018-05-08T12:06:59.103Z,27.60
2018-05-08T12:09:25.589Z,28.90
2018-05-08T12:11:52.076Z,28.30
2018-05-08T12:14:18.581Z,28.20
2018-05-08T12:16:45.060Z,27.60
2018-05-08T12:19:11.482Z,28.30
2018-05-08T12:21:37.889Z,28.20
2018-05-08T12:24:05.151Z,27.50
2018-05-08T12:26:31.695Z,27.50
2018-05-08T12:28:58.237Z,27.90
2018-05-08T12:31:24.591Z,28.80
2018-05-08T12:33:51.620Z,28.70
2018-05-08T12:36:18.060Z,28.00
2018-05-08T12:38:45.257Z,28.70
2018-05-08T12:41:11.636Z,28.70
2018-05-08T12:43:38.007Z,28.00
2018-05-08T12:46:04.439Z,26.70
2018-05-08T12:48:30.851Z,27.00
2018-05-08T12:50:57.190Z,26.60
2018-05-08T12:53:23.541Z,26.70
2018-05-08T12:55:50.693Z,26.30
2018-05-08T12:58:17.127Z,26.20
2018-05-08T13:00:43.479Z,28.10
2018-05-08T13:03:09.840Z,27.10
2018-05-08T13:05:37.301Z,28.20
2018-05-08T13:08:03.671Z,28.20
2018-05-08T13:10:30.015Z,27.60
2018-05-08T13:12:56.396Z,27.90
2018-05-08T13:15:22.763Z,27.50
2018-05-08T13:17:49.969Z,28.40
2018-05-08T13:20:17.194Z,28.40
2018-05-08T13:22:43.630Z,28.30
2018-05-08T13:25:10.015Z,28.50
2018-05-08T13:27:37.132Z,27.30
2018-05-08T13:30:03.642Z,27.30
2018-05-08T13:32:29.980Z,27.30
2018-05-08T13:34:56.443Z,27.60
2018-05-08T13:37:22.843Z,28.00
2018-05-08T13:39:50.039Z,27.90
2018-05-08T13:42:16.365Z,27.80
2018-05-08T13:44:43.425Z,27.40
2018-05-08T13:47:10.521Z,27.10
2018-05-08T13:49:36.990Z,27.10
2018-05-08T13:52:03.356Z,26.90
2018-05-08T13:54:29.673Z,28.00
2018-05-08T13:56:56.071Z,28.30
2018-05-08T13:59:22.432Z,28.30
2018-05-08T14:01:48.761Z,27.90
2018-05-08T14:04:15.121Z,28.70
2018-05-08T14:06:41.670Z,29.30
2018-05-08T14:09:07.961Z,29.40
2018-05-08T14:11:34.335Z,29.30
2018-05-08T14:14:01.466Z,29.70
2018-05-08T14:16:27.848Z,29.60
2018-05-08T14:18:54.250Z,29.40
2018-05-08T14:21:20.631Z,29.10
2018-05-08T14:23:47.733Z,28.10
2018-05-08T14:26:14.272Z,28.00
2018-05-08T14:28:40.600Z,28.60
2018-05-08T14:31:06.931Z,28.80
2018-05-08T14:33:33.953Z,28.00
2018-05-08T14:36:00.272Z,28.00
2018-05-08T14:38:26.669Z,27.40
2018-05-08T14:40:53.024Z,28.20
2018-05-08T14:43:19.331Z,28.30
2018-05-08T14:45:46.655Z,28.70
2018-05-08T14:48:13.254Z,28.40
2018-05-08T14:50:39.651Z,27.90
2018-05-08T14:53:06.026Z,27.80
2018-05-08T14:55:33.234Z,27.50
2018-05-08T14:57:59.652Z,27.50
2018-05-08T15:00:26.119Z,28.00
2018-05-08T15:02:52.504Z,28.80
2018-05-08T15:05:18.975Z,28.60
2018-05-08T15:07:45.303Z,28.60
2018-05-08T15:10:11.724Z,29.30
2018-05-08T15:12:38.147Z,28.70
2018-05-08T15:15:06.780Z,28.80
2018-05-08T15:17:33.175Z,28.30
2018-05-08T15:19:59.520Z,28.60
2018-05-08T15:22:26.590Z,28.60
2018-05-08T15:24:53.676Z,28.20
2018-05-08T15:27:20.063Z,28.10
2018-05-08T15:29:46.574Z,28.80
2018-05-08T15:32:12.903Z,29.30
2018-05-08T15:34:40.398Z,29.90
2018-05-08T15:37:08.047Z,30.40
2018-05-08T15:39:34.389Z,30.40
2018-05-08T15:42:00.790Z,30.50
2018-05-08T15:44:27.088Z,30.60
2018-05-08T15:46:53.420Z,30.90
2018-05-08T15:49:21.636Z,30.50
2018-05-08T15:51:49.162Z,30.80
2018-05-08T15:54:16.286Z,31.00
2018-05-08T15:56:42.656Z,30.90
2018-05-08T15:59:09.713Z,30.60
2018-05-08T16:01:36.163Z,31.00
2018-05-08T16:04:03.351Z,30.30
2018-05-08T16:06:29.693Z,30.50
2018-05-08T16:08:57.876Z,30.20
2018-05-08T16:11:24.393Z,30.10
2018-05-08T16:13:52.509Z,29.90
2018-05-08T16:16:19.641Z,30.30
2018-05-08T16:18:45.968Z,30.30
2018-05-08T16:21:12.678Z,30.80
2018-05-08T16:23:39.033Z,31.70
2018-05-08T16:26:05.394Z,31.80
2018-05-08T16:28:31.723Z,32.30
2018-05-08T16:30:58.157Z,31.90
2018-05-08T16:33:24.519Z,31.90
2018-05-08T16:35:50.878Z,31.50
2018-05-08T16:38:17.216Z,32.00
2018-05-08T16:40:43.689Z,32.20
2018-05-08T16:43:10.104Z,32.10
2018-05-08T16:45:36.416Z,31.90
2018-05-08T16:48:02.844Z,31.70
2018-05-08T16:50:29.874Z,32.60
2018-05-08T16:52:57.085Z,33.10
2018-05-08T16:55:23.396Z,33.00
2018-05-08T16:57:49.717Z,33.20
2018-05-08T17:00:16.093Z,33.30
2018-05-08T17:02:43.190Z,33.10
2018-05-08T17:05:09.557Z,33.10
2018-05-08T17:07:35.941Z,32.90
2018-05-08T17:10:03.180Z,33.30
2018-05-08T17:12:30.337Z,33.10
2018-05-08T17:14:56.633Z,33.10
2018-05-08T17:17:23.011Z,33.80
2018-05-08T17:19:49.456Z,33.40
2018-05-08T17:22:15.836Z,33.80
2018-05-08T17:24:42.266Z,34.10
2018-05-08T17:27:08.626Z,34.90
2018-05-08T17:29:36.058Z,34.90
2018-05-08T17:32:06.085Z,34.80
2018-05-08T17:34:32.395Z,35.10
2018-05-08T17:36:58.732Z,35.40
2018-05-08T17:39:25.739Z,36.00
2018-05-08T17:41:52.098Z,36.00
2018-05-08T17:44:18.472Z,36.00
2018-05-08T17:46:45.798Z,36.30
2018-05-08T17:49:12.256Z,36.20
2018-05-08T17:51:38.574Z,36.50
2018-05-08T17:54:04.893Z,36.70
2018-05-08T17:56:31.264Z,36.60
2018-05-08T17:58:57.661Z,36.90
2018-05-08T18:01:24.767Z,37.60
2018-05-08T18:03:51.091Z,37.50
2018-05-08T18:06:17.462Z,37.70
2018-05-08T18:08:43.786Z,38.10
2018-05-08T18:11:10.126Z,38.30
2018-05-08T18:13:36.428Z,38.60
2018-05-08T18:16:02.817Z,38.80
2018-05-08T18:18:29.142Z,39.10
2018-05-08T18:20:55.481Z,39.30
2018-05-08T18:23:22.644Z,39.20
2018-05-08T18:25:48.983Z,39.10
2018-05-08T18:28:17.026Z,39.80
2018-05-08T18:30:43.385Z,39.80
2018-05-08T18:33:09.795Z,40.40
2018-05-08T18:35:36.191Z,40.30
2018-05-08T18:38:03.348Z,40.80
2018-05-08T18:40:37.257Z,40.70
2018-05-08T18:43:03.646Z,41.00
2018-05-08T18:45:30.432Z,41.40
2018-05-08T18:47:56.806Z,41.50
2018-05-08T18:50:23.218Z,41.70
2018-05-08T18:52:49.548Z,42.00
2018-05-08T18:55:16.919Z,42.40
2018-05-08T18:57:43.305Z,42.90
2018-05-08T19:00:15.849Z,43.00
2018-05-08T19:02:42.320Z,43.00
2018-05-08T19:05:08.939Z,43.10
2018-05-08T19:07:35.436Z,43.10
2018-05-08T19:10:01.912Z,43.20
2018-05-08T19:12:28.213Z,43.40
2018-05-08T19:15:00.872Z,43.40
2018-05-08T19:17:27.935Z,43.90
2018-05-08T19:20:00.390Z,43.90
2018-05-08T19:22:27.454Z,44.20
2018-05-08T19:24:54.504Z,44.10
2018-05-08T19:27:21.722Z,44.40
2018-05-08T19:29:54.922Z,44.30
2018-05-08T19:32:22.031Z,45.20
2018-05-08T19:34:55.327Z,45.40
2018-05-08T19:37:28.427Z,45.40
2018-05-08T19:39:54.898Z,45.70
2018-05-08T19:42:21.946Z,46.10
2018-05-08T19:44:49.018Z,46.50
2018-05-08T19:47:15.401Z,46.50
2018-05-08T19:49:41.970Z,46.40
2018-05-08T19:52:09.119Z,46.70
2018-05-08T19:54:35.522Z,46.70
2018-05-08T19:57:01.831Z,46.80
2018-05-08T19:59:28.294Z,46.80
2018-05-08T20:01:55.506Z,47.70
2018-05-08T20:04:22.002Z,47.70
2018-05-08T20:06:49.171Z,48.20
2018-05-08T20:09:16.302Z,48.60
2018-05-08T20:11:43.450Z,48.50
2018-05-08T20:14:09.887Z,48.90
2018-05-08T20:16:36.305Z,49.10
2018-05-08T20:19:02.661Z,49.20
2018-05-08T20:21:29.007Z,49.60
2018-05-08T20:23:55.334Z,50.00
2018-05-08T20:26:21.737Z,50.70
2018-05-08T20:28:48.783Z,51.10
2018-05-08T20:31:15.199Z,51.20
2018-05-08T20:33:42.249Z,51.60
2018-05-08T20:36:08.747Z,52.30
2018-05-08T20:38:35.063Z,52.40
2018-05-08T20:41:01.404Z,52.90
2018-05-08T20:43:27.740Z,53.10
2018-05-08T20:45:54.098Z,53.40
2018-05-08T20:48:20.483Z,52.80
2018-05-08T20:50:46.924Z,54.00
2018-05-08T20:53:13.386Z,54.70
2018-05-08T20:55:40.475Z,54.10
2018-05-08T20:58:07.547Z,54.00
2018-05-08T21:00:33.975Z,53.80
2018-05-08T21:03:00.300Z,54.70
2018-05-08T21:05:27.387Z,56.10
2018-05-08T21:07:53.894Z,56.10
2018-05-08T21:10:20.281Z,56.60
2018-05-08T21:12:47.455Z,57.20
2018-05-08T21:15:13.964Z,57.20
2018-05-08T21:17:40.349Z,57.90
2018-05-08T21:20:07.334Z,59.70
2018-05-08T21:22:33.685Z,59.00
2018-05-08T21:25:00.039Z,59.40
2018-05-08T21:27:32.392Z,59.40
2018-05-08T21:30:04.864Z,59.20
2018-05-08T21:32:31.225Z,57.60
2018-05-08T21:34:57.484Z,58.40
2018-05-08T21:37:23.801Z,58.80
2018-05-08T21:39:50.276Z,58.90
2018-05-08T21:42:16.511Z,59.00
2018-05-08T21:44:43.661Z,57.90
2018-05-08T21:47:09.992Z,57.90
2018-05-08T21:49:36.378Z,58.10
2018-05-08T21:52:02.710Z,59.70
2018-05-08T21:54:30.091Z,60.90
2018-05-08T21:56:56.416Z,61.70
2018-05-08T21:59:22.771Z,61.90
2018-05-08T22:01:49.107Z,62.40
2018-05-08T22:04:15.460Z,62.80
2018-05-08T22:06:41.761Z,62.90
2018-05-08T22:09:08.033Z,63.20
2018-05-08T22:11:34.388Z,62.30
2018-05-08T22:14:00.699Z,63.00
2018-05-08T22:16:27.079Z,62.40
2018-05-08T22:18:53.423Z,63.20
2018-05-08T22:21:19.691Z,64.20
2018-05-08T22:23:46.054Z,63.90
2018-05-08T22:26:12.371Z,62.80
2018-05-08T22:28:38.700Z,63.80
2018-05-08T22:31:05.703Z,65.20
2018-05-08T22:33:32.113Z,64.30
2018-05-08T22:35:59.245Z,64.00
2018-05-08T22:38:25.524Z,63.90
2018-05-08T22:40:52.546Z,63.20
2018-05-08T22:43:18.872Z,63.20
2018-05-08T22:45:45.271Z,62.90
2018-05-08T22:48:16.144Z,62.40
2018-05-08T22:50:42.693Z,62.30
2018-05-08T22:53:08.995Z,63.50
2018-05-08T22:55:36.020Z,65.10
2018-05-08T22:58:02.408Z,65.10
2018-05-08T23:00:28.687Z,65.60
2018-05-08T23:02:55.006Z,65.90
2018-05-08T23:05:21.404Z,66.40
2018-05-08T23:07:47.703Z,66.60
2018-05-08T23:10:14.069Z,66.80
2018-05-08T23:12:40.416Z,67.60
2018-05-08T23:15:06.740Z,67.30
2018-05-08T23:17:33.103Z,66.70
2018-05-08T23:19:59.514Z,66.40
2018-05-08T23:22:26.599Z,67.00
2018-05-08T23:24:52.917Z,66.90
2018-05-08T23:27:20.117Z,68.60
2018-05-08T23:29:46.809Z,68.60
2018-05-08T23:32:13.368Z,69.10
2018-05-08T23:34:39.675Z,69.00
2018-05-08T23:37:05.944Z,68.30
2018-05-08T23:39:32.285Z,68.30
2018-05-08T23:41:59.596Z,68.20
2018-05-08T23:44:25.898Z,68.10
2018-05-08T23:46:52.234Z,67.90
2018-05-08T23:49:18.555Z,67.40
2018-05-08T23:51:45.007Z,67.00
2018-05-08T23:54:11.320Z,66.90
2018-05-08T23:56:37.663Z,68.30
2018-05-08T23:59:04.036Z,67.30
